Time;durP1;ratioP1;P1;durP2;ratioP2;P2;SDS_P1;SDS_P2;PMS_P1;PMS_P2;Temp;Humidity;BMP_temperature;BMP_pressure;BME280_temperature;BME280_humidity;BME280_pressure;Samples;Min_cycle;Max_cycle;Signal;HPM_P1;HPM_P2
2022/12/10 00:01:20;;;;;;;5.78;4.30;;;;;;;19.98;33.35;100797.44;5032893;28;20052;-68
2022/12/10 00:03:46;;;;;;;6.13;4.50;;;;;;;19.96;33.41;100796.81;5032694;28;20045;-69
2022/12/10 00:06:14;;;;;;;6.47;4.25;;;;;;;20.01;33.11;100794.44;5027144;28;20116;-69
2022/12/10 00:08:40;;;;;;;6.28;4.63;;;;;;;19.95;33.41;100797.81;5030231;28;20164;-68
2022/12/10 00:11:07;;;;;;;6.00;4.30;;;;;;;19.96;33.46;100791.50;5030790;28;20061;-68
2022/12/10 00:13:34;;;;;;;6.25;4.70;;;;;;;19.97;33.30;100793.16;5027991;28;20033;-67
2022/12/10 00:16:01;;;;;;;6.80;4.63;;;;;;;19.97;33.27;100787.88;5027596;28;20080;-68
2022/12/10 00:18:26;;;;;;;6.10;4.43;;;;;;;19.95;33.38;100789.88;5036010;28;20487;-69
2022/12/10 00:20:52;;;;;;;6.65;3.65;;;;;;;19.88;33.44;100784.47;5033470;28;20037;-68
2022/12/10 00:23:18;;;;;;;6.28;4.28;;;;;;;19.86;33.48;100785.66;5031013;28;20048;-69
2022/12/10 00:25:43;;;;;;;6.15;4.30;;;;;;;19.78;33.61;100794.50;5028982;28;20082;-69
2022/12/10 00:28:09;;;;;;;5.65;4.00;;;;;;;19.87;33.41;100792.59;5028886;28;20033;-68
2022/12/10 00:30:35;;;;;;;5.30;3.83;;;;;;;19.85;33.49;100786.66;5036732;28;20051;-68
2022/12/10 00:33:00;;;;;;;6.88;4.53;;;;;;;19.82;33.43;100792.31;5036938;28;20049;-68
2022/12/10 00:35:26;;;;;;;5.80;4.55;;;;;;;19.81;33.57;100791.50;5028541;28;20079;-68
2022/12/10 00:37:51;;;;;;;6.50;4.88;;;;;;;19.82;33.48;100797.59;5029897;28;20077;-69
2022/12/10 00:40:17;;;;;;;6.22;4.28;;;;;;;19.86;33.39;100804.16;5013973;28;20056;-68
2022/12/10 00:42:42;;;;;;;5.55;4.53;;;;;;;19.87;33.37;100803.16;5024096;28;20033;-69
2022/12/10 00:45:08;;;;;;;6.57;4.80;;;;;;;19.75;33.47;100789.59;5028783;28;20048;-69
2022/12/10 00:47:34;;;;;;;5.57;4.57;;;;;;;19.82;33.32;100803.72;5030677;28;20045;-68
2022/12/10 00:49:59;;;;;;;6.95;4.40;;;;;;;19.86;33.45;100809.44;5024796;28;20045;-68
2022/12/10 00:52:25;;;;;;;5.63;4.28;;;;;;;19.80;33.52;100818.91;5030004;28;20044;-68
2022/12/10 00:54:50;;;;;;;5.43;4.28;;;;;;;19.87;33.47;100811.09;5033983;28;20037;-68
2022/12/10 00:57:16;;;;;;;7.50;4.78;;;;;;;19.78;33.52;100820.94;5027017;28;20045;-68
2022/12/10 00:59:41;;;;;;;7.13;4.55;;;;;;;19.78;33.58;100817.47;5027496;28;20056;-68
2022/12/10 01:02:07;;;;;;;6.43;4.20;;;;;;;19.83;33.52;100815.09;5033483;28;20411;-68
2022/12/10 01:04:32;;;;;;;5.75;3.97;;;;;;;19.80;33.42;100815.47;5035317;28;20537;-68
2022/12/10 01:06:59;;;;;;;7.38;5.20;;;;;;;19.75;33.64;100812.50;5035789;28;20033;-68
2022/12/10 01:09:27;;;;;;;8.32;5.28;;;;;;;19.76;33.55;100809.72;5030164;28;20111;-68
2022/12/10 01:11:54;;;;;;;6.50;4.88;;;;;;;19.77;33.88;100815.81;5031160;28;20071;-68
2022/12/10 01:14:26;;;;;;;7.07;4.60;;;;;;;19.77;33.54;100808.72;5026766;28;20033;-67
2022/12/10 01:16:56;;;;;;;6.53;4.43;;;;;;;19.75;33.66;100804.59;5027335;28;20123;-68
2022/12/10 01:19:22;;;;;;;6.63;4.60;;;;;;;19.74;33.64;100805.59;5031560;28;20052;-67
2022/12/10 01:21:53;;;;;;;6.53;4.78;;;;;;;19.83;33.46;100810.63;5033802;28;20043;-68
2022/12/10 01:24:20;;;;;;;6.30;4.28;;;;;;;19.75;33.61;100812.50;5030180;28;20046;-68
2022/12/10 01:26:45;;;;;;;5.63;4.30;;;;;;;19.77;33.77;100819.28;5030267;28;20124;-68
2022/12/10 01:29:11;;;;;;;7.28;4.20;;;;;;;19.73;33.61;100819.81;5027503;28;20051;-69
2022/12/10 01:31:39;;;;;;;5.82;4.47;;;;;;;19.75;33.60;100816.00;5033339;28;20470;-69
2022/12/10 01:34:07;;;;;;;5.95;4.38;;;;;;;19.74;33.59;100813.50;5032262;28;20071;-68
2022/12/10 01:36:39;;;;;;;5.28;4.43;;;;;;;19.65;33.82;100823.34;5034164;28;20029;-68
2022/12/10 01:39:07;;;;;;;6.68;4.57;;;;;;;19.72;33.68;100812.88;5024471;28;20124;-68
2022/12/10 01:41:40;;;;;;;5.88;4.38;;;;;;;19.72;33.68;100821.63;5026608;28;20503;-68
2022/12/10 01:44:08;;;;;;;6.43;4.80;;;;;;;19.77;33.50;100823.75;5029815;28;20033;-68
2022/12/10 01:46:37;;;;;;;6.25;4.55;;;;;;;19.73;33.59;100820.63;5031401;28;20040;-68
2022/12/10 01:49:12;;;;;;;6.43;4.65;;;;;;;19.67;33.66;100823.97;5025670;28;20063;-68
2022/12/10 01:51:40;;;;;;;5.50;4.35;;;;;;;19.74;33.61;100819.63;5030291;28;20060;-68
2022/12/10 01:54:10;;;;;;;7.30;4.95;;;;;;;19.73;33.64;100817.97;5027334;28;20474;-68
2022/12/10 01:56:40;;;;;;;6.15;4.63;;;;;;;19.75;33.53;100820.44;5035789;28;20600;-67
2022/12/10 01:59:06;;;;;;;6.82;5.10;;;;;;;19.74;33.56;100811.69;5034961;28;20032;-68
2022/12/10 02:02:01;;;;;;;5.97;4.47;;;;;;;19.65;33.77;100827.81;5027101;28;20048;-67
2022/12/10 02:04:44;;;;;;;6.13;4.38;;;;;;;19.62;33.77;100821.06;5035443;28;20386;-68
2022/12/10 02:07:34;;;;;;;6.63;4.57;;;;;;;19.67;33.78;100823.16;5030686;28;20045;-68
2022/12/10 02:10:17;;;;;;;6.95;5.00;;;;;;;19.63;33.76;100820.06;5029929;28;20064;-68
2022/12/10 02:12:53;;;;;;;6.22;4.78;;;;;;;19.69;33.71;100818.53;5026256;28;20032;-68
2022/12/10 02:15:24;;;;;;;5.75;4.57;;;;;;;19.60;33.83;100821.25;5033530;28;20037;-68
2022/12/10 02:17:57;;;;;;;6.60;4.35;;;;;;;19.71;33.66;100813.88;5031525;28;20350;-68
2022/12/10 02:20:39;;;;;;;7.68;4.57;;;;;;;19.67;33.82;100820.53;5027556;28;20032;-68
2022/12/10 02:23:07;;;;;;;6.85;5.00;;;;;;;19.65;33.74;100814.59;5028573;28;20036;-68
2022/12/10 02:25:41;;;;;;;7.45;4.85;;;;;;;19.61;33.80;100817.59;5029479;28;20033;-68
2022/12/10 02:28:19;;;;;;;6.13;4.38;;;;;;;19.66;33.66;100818.88;5029473;28;20033;-68
2022/12/10 02:30:48;;;;;;;5.35;4.15;;;;;;;19.79;33.48;100819.09;5027484;28;20541;-68
2022/12/10 02:33:17;;;;;;;6.50;4.80;;;;;;;20.05;33.29;100830.06;5027946;28;20037;-68
2022/12/10 02:35:44;;;;;;;8.02;5.32;;;;;;;20.16;32.93;100821.69;5031754;28;20032;-68
2022/12/10 02:38:16;;;;;;;6.82;4.70;;;;;;;20.24;32.93;100818.13;5027260;28;20530;-68
2022/12/10 02:40:48;;;;;;;6.63;4.22;;;;;;;20.20;33.10;100811.56;5044710;28;20031;-67
2022/12/10 02:43:15;;;;;;;6.55;4.35;;;;;;;20.22;33.10;100817.50;5028085;28;20044;-68
2022/12/10 02:45:44;;;;;;;6.47;4.70;;;;;;;20.19;33.09;100816.03;5041732;28;20420;-68
2022/12/10 02:48:11;;;;;;;7.00;4.78;;;;;;;20.13;33.26;100822.06;5029398;28;20056;-68
2022/12/10 02:50:40;;;;;;;;;;;;;;;20.08;33.46;100819.13;5024657;28;20041;-68
2022/12/10 02:53:05;;;;;;;6.18;4.55;;;;;;;20.06;33.33;100813.19;5028926;28;19923;-68
2022/12/10 02:55:59;;;;;;;5.97;4.43;;;;;;;20.03;33.44;100800.34;5019435;28;20048;-67
2022/12/10 02:58:57;;;;;;;6.53;4.65;;;;;;;20.07;33.55;100806.09;5028530;28;20051;-68
2022/12/10 03:01:44;;;;;;;7.22;4.85;;;;;;;19.97;33.58;100809.00;5031067;28;20131;-68
2022/12/10 03:04:22;;;;;;;6.97;4.82;;;;;;;20.00;33.45;100805.19;5034475;28;20668;-68
2022/12/10 03:06:53;;;;;;;6.05;4.40;;;;;;;20.00;33.47;100811.28;5032678;28;20508;-68
2022/12/10 03:09:23;;;;;;;;;;;;;;;20.00;33.48;100813.13;5031002;28;20052;-68
2022/12/10 03:11:57;;;;;;;7.07;5.03;;;;;;;19.92;33.66;100814.81;5030621;28;19920;-67
2022/12/10 03:14:28;;;;;;;7.20;4.70;;;;;;;19.95;33.66;100813.66;5030445;28;20124;-68
2022/12/10 03:16:59;;;;;;;5.63;4.40;;;;;;;19.85;33.66;100808.63;5029269;28;20041;-68
2022/12/10 03:19:44;;;;;;;6.13;4.32;;;;;;;19.96;33.54;100819.78;5038073;28;20064;-68
2022/12/10 03:22:12;;;;;;;7.03;4.60;;;;;;;19.93;33.62;100815.66;5035210;28;20034;-68
2022/12/10 03:24:41;;;;;;;9.25;5.13;;;;;;;19.91;33.56;100812.34;5034349;28;20037;-68
2022/12/10 03:27:10;;;;;;;6.45;4.38;;;;;;;19.86;33.60;100815.56;5031838;28;20051;-68
2022/12/10 03:29:42;;;;;;;7.05;4.68;;;;;;;19.83;33.65;100813.28;5031519;28;20701;-68
2022/12/10 03:32:08;;;;;;;6.22;4.70;;;;;;;19.80;33.90;100815.47;5029664;28;20056;-68
2022/12/10 03:34:35;;;;;;;6.05;3.97;;;;;;;19.82;33.74;100816.91;5033782;28;20037;-68
2022/12/10 03:37:02;;;;;;;6.00;4.53;;;;;;;19.82;33.48;100808.16;5039228;28;20057;-67
2022/12/10 03:39:28;;;;;;;5.75;4.32;;;;;;;19.80;33.68;100816.28;5035743;28;20224;-68
2022/12/10 03:41:54;;;;;;;7.55;5.53;;;;;;;19.83;33.55;100815.91;5030081;28;21023;-68
2022/12/10 03:44:38;;;;;;;7.03;5.13;;;;;;;19.87;33.47;100821.66;5035593;28;20037;-68
2022/12/10 03:47:06;;;;;;;7.30;4.78;;;;;;;19.82;33.52;100819.56;5039464;28;20029;-68
2022/12/10 03:49:31;;;;;;;7.13;5.57;;;;;;;19.76;33.69;100807.06;5032443;28;20033;-67
2022/12/10 03:51:57;;;;;;;7.00;5.18;;;;;;;19.78;33.61;100817.47;5038896;28;20049;-68
2022/12/10 03:54:22;;;;;;;5.65;4.40;;;;;;;19.76;33.61;100816.81;5036846;28;20497;-68
2022/12/10 03:56:48;;;;;;;5.53;4.50;;;;;;;19.75;33.61;100813.38;5040683;28;20155;-68
2022/12/10 03:59:14;;;;;;;7.20;5.18;;;;;;;19.74;33.66;100810.88;5034533;28;20044;-68
2022/12/10 04:01:41;;;;;;;7.63;4.88;;;;;;;19.72;33.70;100818.97;5032388;28;20919;-68
2022/12/10 04:04:06;;;;;;;7.20;5.10;;;;;;;19.73;33.49;100814.50;5042342;28;20041;-68
2022/12/10 04:06:32;;;;;;;7.03;4.60;;;;;;;19.71;33.65;100813.88;5041092;28;20079;-68
2022/12/10 04:08:57;;;;;;;7.78;4.85;;;;;;;19.71;33.61;100825.25;5036718;28;20124;-68
2022/12/10 04:11:23;;;;;;;6.75;4.72;;;;;;;19.74;33.58;100821.44;5029900;28;20042;-68
2022/12/10 04:16:34;;;;;;;6.22;4.88;;;;;;;19.68;33.73;100827.44;5033263;28;20676;-68
2022/12/10 04:19:10;;;;;;;7.63;5.25;;;;;;;19.67;33.63;100823.16;5035755;28;20127;-68
2022/12/10 04:27:12;;;;;;;7.75;4.60;;;;;;;19.67;33.64;100831.09;5037199;28;20071;-68
2022/12/10 04:29:38;;;;;;;;;;;;;;;19.59;33.81;100832.00;5030184;28;20041;-68
2022/12/10 04:32:03;;;;;;;7.57;5.55;;;;;;;19.55;33.94;100841.25;5027613;28;20391;-68
2022/12/10 04:34:29;;;;;;;7.55;5.32;;;;;;;19.62;33.73;100844.84;5032367;28;20127;-67
2022/12/10 04:36:54;;;;;;;7.55;5.57;;;;;;;19.65;33.58;100856.88;5043291;28;20075;-68
2022/12/10 04:39:21;;;;;;;7.30;4.95;;;;;;;19.67;33.54;100860.16;5035019;28;20049;-68
2022/12/10 04:41:48;;;;;;;7.63;4.82;;;;;;;19.62;33.63;100850.13;5029164;28;20033;-68
2022/12/10 04:44:14;;;;;;;6.85;5.00;;;;;;;19.59;33.91;100846.03;5028932;28;20043;-68
2022/12/10 04:46:39;;;;;;;6.75;4.53;;;;;;;19.51;33.57;100835.47;5028236;28;20041;-68
2022/12/10 04:49:05;;;;;;;6.75;4.80;;;;;;;19.55;33.83;100839.44;5032405;28;20045;-68
2022/12/10 04:51:31;;;;;;;7.35;4.80;;;;;;;19.46;33.65;100829.91;5036313;28;20029;-67
2022/12/10 04:53:57;;;;;;;7.50;5.60;;;;;;;19.51;33.67;100839.94;5026109;28;20557;-68
2022/12/10 04:56:23;;;;;;;6.82;5.03;;;;;;;19.52;33.73;100846.84;5028862;28;20116;-68
2022/12/10 04:58:49;;;;;;;6.80;4.95;;;;;;;19.48;33.92;100849.03;5032280;28;20065;-68
2022/12/10 05:01:15;;;;;;;8.85;5.72;;;;;;;19.57;33.71;100840.09;5029636;28;20041;-67
2022/12/10 05:03:40;;;;;;;7.22;5.03;;;;;;;19.56;33.39;100851.63;5033411;28;20116;-67
2022/12/10 05:06:12;;;;;;;8.45;5.20;;;;;;;19.54;33.70;100845.72;5032320;28;20049;-67
2022/12/10 05:08:38;;;;;;;8.35;5.22;;;;;;;19.55;33.72;100842.06;5034607;28;20036;-68
2022/12/10 05:11:06;;;;;;;6.95;5.20;;;;;;;19.49;33.59;100847.22;5035120;28;20095;-68
2022/12/10 05:13:32;;;;;;;8.85;5.47;;;;;;;19.54;33.67;100844.88;5032824;28;20033;-68
2022/12/10 05:16:00;;;;;;;6.72;4.72;;;;;;;19.48;33.75;100848.22;5027490;28;20369;-67
2022/12/10 05:18:26;;;;;;;7.38;4.93;;;;;;;19.53;33.62;100846.69;5033643;28;20052;-68
2022/12/10 05:20:51;;;;;;;6.60;4.57;;;;;;;19.75;33.46;100846.84;5027141;28;20041;-68
2022/12/10 05:23:29;;;;;;;7.28;5.03;;;;;;;19.79;33.33;100833.13;5030091;28;20435;-68
2022/12/10 05:26:02;;;;;;;6.45;5.03;;;;;;;19.85;33.26;100829.75;5030255;28;20399;-68
2022/12/10 05:28:29;;;;;;;6.22;4.82;;;;;;;19.89;33.28;100835.50;5026253;28;20087;-68
2022/12/10 05:30:55;;;;;;;7.05;5.10;;;;;;;19.84;33.21;100832.59;5028795;28;20037;-68
2022/12/10 05:33:21;;;;;;;6.88;5.75;;;;;;;19.81;33.44;100835.59;5028004;28;20040;-68
2022/12/10 05:36:01;;;;;;;7.13;4.72;;;;;;;19.83;33.31;100838.88;5027913;28;20087;-68
2022/12/10 05:38:30;;;;;;;7.00;4.65;;;;;;;19.83;33.27;100834.41;5040951;28;20098;-68
2022/12/10 05:40:55;;;;;;;5.63;4.50;;;;;;;19.80;33.38;100832.13;5030465;28;20037;-68
2022/12/10 05:43:24;;;;;;;7.63;4.70;;;;;;;19.81;33.46;100832.97;5032195;28;20109;-68
2022/12/10 05:45:50;;;;;;;6.80;4.93;;;;;;;19.82;33.45;100845.16;5027775;28;20026;-68
2022/12/10 05:48:16;;;;;;;7.95;5.20;;;;;;;19.75;33.61;100841.56;5036837;28;20053;-68
2022/12/10 05:50:42;;;;;;;6.85;4.72;;;;;;;19.70;33.50;100839.47;5032163;28;20044;-68
2022/12/10 05:53:07;;;;;;;6.45;4.63;;;;;;;19.72;33.55;100845.41;5027125;28;20041;-68
2022/12/10 05:55:33;;;;;;;7.38;5.20;;;;;;;19.71;33.75;100843.75;5030367;28;20049;-68
2022/12/10 05:57:59;;;;;;;8.07;5.40;;;;;;;19.72;33.64;100848.03;5026575;28;20063;-68
2022/12/10 06:00:26;;;;;;;6.43;5.05;;;;;;;19.65;33.89;100852.41;5028708;28;20033;-68
2022/12/10 06:02:52;;;;;;;7.63;5.40;;;;;;;19.66;33.73;100851.41;5028871;28;20056;-68
2022/12/10 06:05:17;;;;;;;6.03;4.65;;;;;;;19.69;33.66;100863.44;5031007;28;20048;-68
2022/12/10 06:07:43;;;;;;;8.60;5.70;;;;;;;19.66;33.70;100861.97;5036106;28;20203;-68
2022/12/10 06:10:10;;;;;;;7.15;5.13;;;;;;;19.70;33.69;100868.53;5026452;28;20080;-68
2022/12/10 06:12:36;;;;;;;5.63;4.28;;;;;;;19.65;33.76;100867.44;5033221;28;20102;-68
2022/12/10 06:15:02;;;;;;;6.30;4.80;;;;;;;19.60;33.83;100873.25;5029795;28;20068;-68
2022/12/10 06:17:28;;;;;;;7.28;4.68;;;;;;;19.58;33.85;100870.78;5027455;28;20053;-68
2022/12/10 06:19:53;;;;;;;6.70;4.85;;;;;;;19.66;33.68;100872.53;5026348;28;20033;-68
2022/12/10 06:22:19;;;;;;;7.10;4.65;;;;;;;19.68;33.58;100870.53;5029888;28;20064;-68
2022/12/10 06:24:44;;;;;;;7.75;4.93;;;;;;;19.61;33.91;100870.44;5028530;28;20067;-68
2022/12/10 06:27:10;;;;;;;5.72;4.45;;;;;;;19.59;33.75;100874.25;5027332;28;20041;-68
2022/12/10 06:29:35;;;;;;;6.45;4.90;;;;;;;19.60;33.61;100871.44;5027834;28;20037;-68
2022/12/10 06:32:01;;;;;;;6.75;4.68;;;;;;;19.59;33.79;100876.91;5027032;28;20044;-68
2022/12/10 06:34:26;;;;;;;7.20;5.43;;;;;;;19.57;33.80;100878.91;5029464;28;20044;-68
2022/12/10 06:36:52;;;;;;;7.85;5.40;;;;;;;19.64;33.77;100874.53;5031424;28;20433;-68
2022/12/10 06:39:18;;;;;;;7.90;5.32;;;;;;;20.19;33.29;100881.31;5031909;28;20037;-68
2022/12/10 06:41:45;;;;;;;7.05;5.07;;;;;;;20.98;31.76;100866.53;5033043;28;20045;-68
2022/12/10 06:44:11;;;;;;;10.38;5.00;;;;;;;21.65;30.92;100876.81;5036249;28;20459;-68
2022/12/10 06:46:38;;;;;;;7.30;4.70;;;;;;;21.94;30.63;100878.50;5025301;28;21536;-68
2022/12/10 06:49:04;;;;;;;7.22;5.13;;;;;;;22.09;30.25;100861.72;5030530;28;20436;-68
2022/12/10 06:51:29;;;;;;;6.68;4.75;;;;;;;22.06;30.61;100883.28;5026086;28;20471;-68
2022/12/10 06:53:55;;;;;;;6.65;4.60;;;;;;;22.02;30.37;100883.66;5025154;28;20045;-67
2022/12/10 06:56:21;;;;;;;7.20;4.95;;;;;;;21.82;30.63;100887.97;5030078;28;20037;-68
2022/12/10 06:58:47;;;;;;;6.60;4.68;;;;;;;21.69;30.89;100895.81;5031644;28;20037;-68
2022/12/10 07:01:16;;;;;;;5.15;4.45;;;;;;;21.46;31.31;100890.69;5026365;28;20091;-68
2022/12/10 07:03:42;;;;;;;6.55;4.75;;;;;;;21.29;31.54;100906.00;5028709;28;20065;-68
2022/12/10 07:06:10;;;;;;;7.03;4.95;;;;;;;21.13;32.09;100907.03;5027183;28;20041;-68
2022/12/10 07:08:36;;;;;;;7.85;5.10;;;;;;;21.03;32.08;100914.47;5036607;28;20037;-68
2022/12/10 07:11:12;;;;;;;7.53;4.90;;;;;;;20.98;32.27;100913.34;5031732;28;20060;-68
2022/12/10 07:13:38;;;;;;;6.75;4.70;;;;;;;20.89;32.56;100919.75;5030473;28;20061;-68
2022/12/10 07:16:21;;;;;;;6.22;4.72;;;;;;;20.87;32.42;100925.25;5032266;28;20395;-68
2022/12/10 07:18:48;;;;;;;6.43;5.03;;;;;;;21.36;31.97;100914.88;5030702;28;20038;-68
2022/12/10 07:21:19;;;;;;;7.07;4.97;;;;;;;21.97;31.06;100915.22;5025036;28;20048;-68
2022/12/10 07:23:45;;;;;;;7.68;5.13;;;;;;;22.63;29.84;100914.91;5028164;28;20056;-68
2022/12/10 07:26:10;;;;;;;8.00;5.82;;;;;;;22.88;29.38;100918.72;5026852;28;20167;-68
2022/12/10 07:28:36;;;;;;;6.63;4.68;;;;;;;22.73;29.68;100922.50;5030741;28;20040;-68
2022/12/10 07:31:07;;;;;;;8.02;5.10;;;;;;;22.56;30.05;100909.53;5030000;28;20037;-68
2022/12/10 07:33:33;;;;;;;7.25;4.68;;;;;;;22.47;30.34;100915.22;5031418;28;20441;-68
2022/12/10 07:35:59;;;;;;;7.28;4.93;;;;;;;22.28;30.53;100920.19;5028247;28;20041;-67
2022/12/10 07:38:25;;;;;;;6.68;4.72;;;;;;;22.10;30.72;100921.69;5033833;28;20033;-68
2022/12/10 07:40:51;;;;;;;7.95;5.70;;;;;;;21.97;31.24;100922.38;5034825;28;20044;-68
2022/12/10 07:43:17;;;;;;;8.05;5.50;;;;;;;21.80;31.45;100921.81;5031781;28;20151;-68
2022/12/10 07:45:43;;;;;;;7.13;5.05;;;;;;;21.61;31.47;100915.31;5026068;28;20053;-68
2022/12/10 07:48:08;;;;;;;7.93;5.22;;;;;;;21.50;31.62;100918.47;5026791;28;20040;-68
2022/12/10 07:50:34;;;;;;;7.82;5.60;;;;;;;21.47;31.86;100929.44;5034732;28;20041;-68
2022/12/10 07:53:00;;;;;;;8.13;5.43;;;;;;;21.42;32.12;100926.53;5026392;28;20377;-68
2022/12/10 07:55:25;;;;;;;7.35;5.28;;;;;;;21.37;31.95;100934.22;5029252;28;20506;-68
2022/12/10 07:57:51;;;;;;;7.80;5.38;;;;;;;21.29;32.04;100935.16;5030233;28;20679;-68
2022/12/10 08:00:16;;;;;;;7.53;5.20;;;;;;;21.29;32.37;100929.84;5022143;28;20535;-68
2022/12/10 08:02:42;;;;;;;9.10;6.68;;;;;;;21.25;32.17;100923.28;5028227;28;20041;-68
2022/12/10 08:05:08;;;;;;;7.95;5.50;;;;;;;21.20;32.40;100932.78;5029081;28;20025;-68
2022/12/10 08:07:34;;;;;;;7.88;5.45;;;;;;;21.16;32.03;100936.78;5029074;28;20040;-68
2022/12/10 08:09:59;;;;;;;7.43;5.40;;;;;;;21.10;32.26;100936.53;5032127;28;20482;-68
2022/12/10 08:12:25;;;;;;;8.15;5.43;;;;;;;21.03;32.52;100940.94;5031620;28;20095;-67
2022/12/10 08:14:50;;;;;;;8.05;5.32;;;;;;;20.97;32.79;100952.25;5027585;28;20040;-68
2022/12/10 08:17:16;;;;;;;6.75;5.20;;;;;;;20.93;32.58;100947.50;5029639;28;20037;-68
2022/12/10 08:19:41;;;;;;;9.27;6.40;;;;;;;20.90;32.77;100954.00;5027694;28;20079;-67
2022/12/10 08:22:07;;;;;;;9.27;5.82;;;;;;;20.86;32.76;100950.06;5027470;28;20045;-68
2022/12/10 08:24:32;;;;;;;8.10;5.72;;;;;;;20.85;32.87;100955.56;5030953;28;20068;-68
2022/12/10 08:26:58;;;;;;;7.43;5.97;;;;;;;20.72;32.76;100948.25;5031070;28;20041;-67
2022/12/10 08:29:23;;;;;;;8.38;5.72;;;;;;;20.77;32.89;100959.91;5025795;28;20122;-68
2022/12/10 08:31:49;;;;;;;7.85;5.63;;;;;;;20.95;32.68;100956.91;5031801;28;20475;-68
2022/12/10 08:34:17;;;;;;;8.40;6.13;;;;;;;21.62;31.45;100943.47;5026741;28;20075;-68
2022/12/10 08:36:43;;;;;;;10.20;6.38;;;;;;;22.35;30.64;100951.25;5028641;28;20086;-68
2022/12/10 08:39:16;;;;;;;7.90;5.20;;;;;;;22.61;30.10;100940.78;5035366;28;20569;-68
2022/12/10 08:41:44;;;;;;;6.65;4.88;;;;;;;22.60;29.89;100957.72;5034195;28;20040;-70
2022/12/10 08:44:10;;;;;;;7.10;5.30;;;;;;;22.48;30.19;100954.00;5027629;28;20051;-68
2022/12/10 08:46:36;;;;;;;8.68;5.97;;;;;;;22.38;30.20;100964.13;5034149;28;20126;-68
2022/12/10 08:49:02;;;;;;;7.47;5.47;;;;;;;22.25;30.51;100967.50;5032642;28;20041;-67
2022/12/10 08:51:27;;;;;;;9.95;6.53;;;;;;;22.06;31.25;100960.19;5030922;28;20032;-67
2022/12/10 08:53:54;;;;;;;8.32;5.75;;;;;;;21.88;31.20;100961.44;5021249;28;20518;-68
2022/12/10 08:56:19;;;;;;;7.60;5.32;;;;;;;21.75;31.61;100963.16;5032288;28;20338;-67
2022/12/10 08:58:45;;;;;;;7.78;5.88;;;;;;;21.66;31.90;100976.50;5045632;28;20029;-67
2022/12/10 09:01:13;;;;;;;8.25;5.75;;;;;;;21.61;31.60;100978.09;5032467;28;21252;-68
2022/12/10 09:03:39;;;;;;;8.15;5.38;;;;;;;21.51;31.73;100972.25;5033789;28;20032;-68
2022/12/10 09:06:07;;;;;;;8.82;5.90;;;;;;;21.48;31.73;100972.66;5032757;28;20052;-68
2022/12/10 09:08:33;;;;;;;8.75;6.40;;;;;;;21.43;32.12;100981.16;5032150;28;20800;-68
2022/12/10 09:11:03;;;;;;;8.18;5.32;;;;;;;21.43;32.04;100983.81;5037460;28;20071;-67
2022/12/10 09:13:29;;;;;;;8.23;5.85;;;;;;;21.35;32.11;100987.38;5029994;28;20037;-68
2022/12/10 09:15:54;;;;;;;8.07;5.95;;;;;;;21.29;32.07;100998.72;5029319;28;20544;-68
2022/12/10 09:18:20;;;;;;;9.60;6.80;;;;;;;21.26;32.03;100993.78;5044460;28;20045;-67
2022/12/10 09:20:46;;;;;;;8.93;6.45;;;;;;;21.17;32.32;101001.97;5016701;28;20050;-67
2022/12/10 09:23:11;;;;;;;9.95;6.82;;;;;;;21.10;32.26;101005.38;5035853;28;20056;-67
2022/12/10 09:25:36;;;;;;;8.38;6.03;;;;;;;21.05;32.45;101014.88;5031075;28;20049;-67
2022/12/10 09:28:02;;;;;;;9.00;5.80;;;;;;;21.02;32.37;101015.25;5033935;28;20048;-67
2022/12/10 09:30:28;;;;;;;9.15;5.88;;;;;;;20.98;32.59;101012.13;5031944;28;20107;-67
2022/12/10 09:32:53;;;;;;;8.50;5.90;;;;;;;20.91;32.77;101003.28;5031794;28;20057;-67
2022/12/10 09:35:19;;;;;;;9.65;5.72;;;;;;;20.90;32.62;101004.28;5028398;28;20041;-67
2022/12/10 09:37:45;;;;;;;9.07;5.40;;;;;;;20.88;32.56;101003.66;5030844;28;20779;-67
2022/12/10 09:40:17;;;;;;;7.82;5.82;;;;;;;20.92;32.65;101004.09;5030670;28;20080;-67
2022/12/10 09:42:57;;;;;;;9.05;5.90;;;;;;;20.90;32.58;101017.53;5034698;28;20041;-68
2022/12/10 09:45:32;;;;;;;7.82;5.90;;;;;;;20.93;32.37;101006.56;5030784;28;20144;-68
2022/12/10 09:48:10;;;;;;;8.80;6.18;;;;;;;20.86;32.49;101013.59;5034805;28;20055;-68
2022/12/10 09:50:51;;;;;;;8.77;6.38;;;;;;;20.84;32.55;101012.97;5027937;28;20034;-68
2022/12/10 09:53:20;;;;;;;9.93;6.85;;;;;;;20.89;32.41;101007.94;5031357;28;20049;-67
2022/12/10 09:55:47;;;;;;;9.93;6.88;;;;;;;21.19;31.96;101015.88;5031661;28;20115;-67
2022/12/10 09:58:20;;;;;;;6.90;5.40;;;;;;;21.61;31.46;101007.25;5029658;28;20443;-68
2022/12/10 10:00:51;;;;;;;9.40;6.10;;;;;;;21.96;30.91;101018.84;5031176;28;20033;-67
2022/12/10 10:03:17;;;;;;;12.20;6.90;;;;;;;21.90;30.65;101020.41;5035501;28;20037;-68
2022/12/10 10:05:47;;;;;;;9.60;5.85;;;;;;;21.80;30.95;101025.19;5031296;28;20045;-68
2022/12/10 10:08:28;;;;;;;8.48;5.95;;;;;;;21.61;31.25;101021.31;5029926;28;20034;-67
2022/12/10 10:10:53;;;;;;;7.95;5.45;;;;;;;21.52;31.56;101025.06;5031104;28;20041;-68
2022/12/10 10:13:38;;;;;;;9.60;6.00;;;;;;;21.44;31.59;101025.19;5033041;28;20480;-68
2022/12/10 10:16:21;;;;;;;8.55;6.45;;;;;;;21.39;31.82;101036.34;5033622;28;20112;-68
2022/12/10 10:18:54;;;;;;;8.57;6.40;;;;;;;21.34;31.67;101029.94;5029029;28;20110;-67
2022/12/10 10:21:30;;;;;;;9.68;6.53;;;;;;;21.32;31.69;101029.31;5025129;28;20049;-67
2022/12/10 10:23:57;;;;;;;8.15;6.47;;;;;;;21.30;31.87;101024.19;5029430;28;20029;-68
2022/12/10 10:26:26;;;;;;;8.35;5.95;;;;;;;21.24;31.87;101027.59;5027987;28;20780;-67
2022/12/10 10:29:05;;;;;;;10.57;6.10;;;;;;;21.15;32.01;101023.34;5026421;28;20070;-67
2022/12/10 10:31:33;;;;;;;8.45;5.95;;;;;;;21.12;32.21;101024.53;5031890;28;20033;-68
2022/12/10 10:34:02;;;;;;;9.18;6.45;;;;;;;21.06;32.06;101020.00;5030559;28;20037;-68
2022/12/10 10:36:34;;;;;;;9.63;6.18;;;;;;;21.00;32.26;101014.59;5031939;28;20125;-68
2022/12/10 10:39:20;;;;;;;9.88;6.18;;;;;;;21.21;32.06;101020.00;5032525;28;20036;-67
2022/12/10 10:41:53;;;;;;;10.30;7.13;;;;;;;21.53;31.50;101008.16;5031673;28;20446;-68
2022/12/10 10:44:21;;;;;;;8.35;5.85;;;;;;;21.59;31.03;101019.88;5030343;28;20045;-67
2022/12/10 10:46:49;;;;;;;9.30;6.57;;;;;;;21.51;31.37;101018.13;5037534;28;20495;-69
2022/12/10 10:49:22;;;;;;;9.80;6.65;;;;;;;21.44;31.61;101022.53;5022803;28;20036;-69
2022/12/10 10:51:48;;;;;;;8.70;6.57;;;;;;;21.36;31.62;101023.47;5034429;28;20479;-68
2022/12/10 10:54:42;;;;;;;9.77;6.60;;;;;;;21.31;31.68;101015.25;5030424;28;20048;-70
2022/12/10 10:57:16;;;;;;;9.80;7.25;;;;;;;21.29;31.87;101019.91;5029383;28;20117;-68
2022/12/10 10:59:42;;;;;;;10.32;7.03;;;;;;;21.30;31.61;101018.06;5041647;28;20054;-68
2022/12/10 11:02:20;;;;;;;11.65;7.13;;;;;;;21.24;32.00;101016.16;5032037;28;20044;-68
2022/12/10 11:04:51;;;;;;;10.82;7.00;;;;;;;21.18;32.13;101019.50;5033600;28;20040;-68
2022/12/10 11:07:37;;;;;;;10.10;6.63;;;;;;;21.12;32.25;101019.25;5035408;28;20055;-68
2022/12/10 11:10:22;;;;;;;9.45;6.20;;;;;;;21.07;32.13;101018.97;5031974;28;20076;-67
2022/12/10 11:13:17;;;;;;;7.82;6.28;;;;;;;21.02;32.08;101023.19;5032735;28;20509;-68
2022/12/10 11:15:44;;;;;;;10.93;7.00;;;;;;;21.02;32.31;101025.84;5032521;28;20782;-68
2022/12/10 11:18:31;;;;;;;10.15;7.07;;;;;;;21.24;31.80;101030.25;5034377;28;20121;-67
2022/12/10 11:21:26;;;;;;;9.32;6.68;;;;;;;21.62;31.42;101022.97;5030388;28;20072;-68
2022/12/10 11:23:54;;;;;;;10.18;6.50;;;;;;;21.76;31.02;101028.41;5026813;28;20049;-69
2022/12/10 11:26:41;;;;;;;9.27;6.50;;;;;;;21.66;30.90;101021.56;5037738;28;20731;-68
2022/12/10 11:29:40;;;;;;;8.95;6.55;;;;;;;21.57;31.54;101019.22;5029794;28;21307;-68
2022/12/10 11:32:46;;;;;;;8.85;6.53;;;;;;;21.40;31.38;101014.16;5029582;28;20029;-68
2022/12/10 11:35:30;;;;;;;9.45;7.18;;;;;;;21.36;31.72;101020.81;5032506;28;20063;-68
2022/12/10 11:38:24;;;;;;;11.43;7.43;;;;;;;21.33;31.43;101026.47;5034806;28;20034;-68
2022/12/10 11:41:00;;;;;;;8.98;6.53;;;;;;;21.31;31.49;101022.38;5033261;28;20068;-68
2022/12/10 11:43:48;;;;;;;10.82;6.95;;;;;;;21.26;31.59;101011.50;5035050;28;20383;-68